createdAt,value
2022-08-12T00:02:03.866Z,9.90
2022-08-12T00:05:14.012Z,9.20
2022-08-12T00:08:30.849Z,9.13
2022-08-12T00:11:45.001Z,9.30
2022-08-12T00:14:51.782Z,9.47
2022-08-12T00:17:59.263Z,9.40
2022-08-12T00:21:07.472Z,9.10
2022-08-12T00:24:14.121Z,9.23
2022-08-12T00:27:22.755Z,8.90
2022-08-12T00:30:32.059Z,9.03
2022-08-12T00:33:52.578Z,8.97
2022-08-12T00:37:12.959Z,8.93
2022-08-12T00:40:20.813Z,9.30
2022-08-12T00:43:16.485Z,9.20
2022-08-12T00:46:24.460Z,9.20
2022-08-12T00:49:14.429Z,9.37
2022-08-12T00:52:07.653Z,9.17
2022-08-12T00:54:59.417Z,9.00
2022-08-12T00:57:52.035Z,9.20
2022-08-12T01:00:43.627Z,9.03
2022-08-12T01:03:51.240Z,8.90
2022-08-12T01:06:59.459Z,9.10
2022-08-12T01:10:09.584Z,8.83
2022-08-12T01:13:07.427Z,8.80
2022-08-12T01:16:12.125Z,8.93
2022-08-12T01:19:03.901Z,8.90
2022-08-12T01:22:23.134Z,9.20
2022-08-12T01:25:18.512Z,9.20
2022-08-12T01:28:13.640Z,9.40
2022-08-12T01:31:06.388Z,9.17
2022-08-12T01:34:04.754Z,9.13
2022-08-12T01:36:59.057Z,9.20
2022-08-12T01:40:35.055Z,10.53
2022-08-12T01:43:09.012Z,10.20
2022-08-12T01:46:09.089Z,10.70
2022-08-12T01:49:21.731Z,9.93
2022-08-12T01:52:29.448Z,9.93
2022-08-12T01:55:24.398Z,9.23
2022-08-12T01:58:52.128Z,9.20
2022-08-12T02:01:42.319Z,9.30
2022-08-12T02:05:05.049Z,9.43
2022-08-12T02:08:29.441Z,9.10
2022-08-12T02:11:24.818Z,9.10
2022-08-12T02:14:35.439Z,9.70
2022-08-12T02:17:55.462Z,9.80
2022-08-12T02:20:56.413Z,9.60
2022-08-12T02:23:45.904Z,9.10
2022-08-12T02:26:37.653Z,8.80
2022-08-12T02:29:29.053Z,9.00
2022-08-12T02:32:18.900Z,9.30
2022-08-12T02:35:11.898Z,9.40
2022-08-12T02:38:05.196Z,9.00
2022-08-12T02:40:57.223Z,9.13
2022-08-12T02:43:53.403Z,8.90
2022-08-12T02:46:49.162Z,8.80
2022-08-12T02:49:46.093Z,9.30
2022-08-12T02:52:36.366Z,9.30
2022-08-12T02:55:34.478Z,9.40
2022-08-12T02:58:32.935Z,9.23
2022-08-12T03:01:28.615Z,9.33
2022-08-12T03:04:30.039Z,9.47
2022-08-12T03:07:56.386Z,9.27
2022-08-12T03:10:44.200Z,9.20
2022-08-12T03:13:43.068Z,9.37
2022-08-12T03:16:33.775Z,9.20
2022-08-12T03:19:31.005Z,9.70
2022-08-12T03:22:21.942Z,9.07
2022-08-12T03:25:17.874Z,9.20
2022-08-12T03:28:11.649Z,9.20
2022-08-12T03:31:13.504Z,9.30
2022-08-12T03:34:07.332Z,9.17
2022-08-12T03:36:58.903Z,9.30
2022-08-12T03:39:48.562Z,9.43
2022-08-12T03:42:42.331Z,9.50
2022-08-12T03:45:53.020Z,9.40
2022-08-12T03:49:00.197Z,8.90
2022-08-12T03:52:07.134Z,9.00
2022-08-12T03:55:15.193Z,9.10
2022-08-12T03:58:22.481Z,9.23
2022-08-12T04:01:13.097Z,9.37
2022-08-12T04:04:04.076Z,8.87
2022-08-12T04:06:54.380Z,9.03
2022-08-12T04:09:46.140Z,9.30
2022-08-12T04:12:54.207Z,9.30
2022-08-12T04:15:45.601Z,9.10
2022-08-12T04:18:35.484Z,9.40
2022-08-12T04:21:25.944Z,8.93
2022-08-12T04:24:16.151Z,8.90
2022-08-12T04:27:09.430Z,9.17
2022-08-12T04:30:30.946Z,9.00
2022-08-12T04:33:10.655Z,8.97
2022-08-12T04:36:00.257Z,8.93
2022-08-12T04:38:49.945Z,9.00
2022-08-12T04:41:57.648Z,9.07
2022-08-12T04:44:48.589Z,9.27
2022-08-12T04:47:40.406Z,9.07
2022-08-12T04:50:35.975Z,9.20
2022-08-12T04:53:26.267Z,8.90
2022-08-12T04:56:16.665Z,8.80
2022-08-12T04:59:06.093Z,8.90
2022-08-12T05:01:57.044Z,9.20
2022-08-12T05:04:48.686Z,9.10
2022-08-12T05:07:53.963Z,9.07
2022-08-12T05:10:46.372Z,9.30
2022-08-12T05:13:39.192Z,8.90
2022-08-12T05:16:34.157Z,8.70
2022-08-12T05:19:25.504Z,9.23
2022-08-12T05:22:16.266Z,8.73
2022-08-12T05:25:07.365Z,9.20
2022-08-12T05:27:59.129Z,8.63
2022-08-12T05:30:49.159Z,8.80
2022-08-12T05:33:40.291Z,8.80
2022-08-12T05:36:29.787Z,8.30
2022-08-12T05:39:20.615Z,8.87
2022-08-12T05:42:10.682Z,8.47
2022-08-12T05:45:00.215Z,8.43
2022-08-12T05:47:53.620Z,8.53
2022-08-12T05:50:45.741Z,8.83
2022-08-12T05:53:35.344Z,8.80
2022-08-12T05:56:28.939Z,8.57
2022-08-12T05:59:18.374Z,8.10
2022-08-12T06:02:13.388Z,8.23
2022-08-12T06:05:03.290Z,8.30
2022-08-12T06:08:01.239Z,8.03
2022-08-12T06:10:52.147Z,8.10
2022-08-12T06:13:53.861Z,8.73
2022-08-12T06:16:46.395Z,8.37
2022-08-12T06:20:28.250Z,8.30
2022-08-12T06:22:47.880Z,8.63
2022-08-12T06:25:38.470Z,7.77
2022-08-12T06:28:30.544Z,7.90
2022-08-12T06:31:26.276Z,7.60
2022-08-12T06:35:23.273Z,7.87
2022-08-12T06:37:27.613Z,7.50
2022-08-12T06:40:39.132Z,7.72
2022-08-12T06:43:27.736Z,7.55
2022-08-12T06:46:17.193Z,7.68
2022-08-12T06:49:08.672Z,7.68
2022-08-12T06:51:58.146Z,7.55
2022-08-12T06:54:47.594Z,7.90
2022-08-12T06:58:05.342Z,7.90
2022-08-12T07:00:59.583Z,7.85
2022-08-12T07:03:51.249Z,7.50
2022-08-12T07:06:42.176Z,7.68
2022-08-12T07:10:03.964Z,7.47
2022-08-12T07:12:42.693Z,7.90
2022-08-12T07:15:32.414Z,7.70
2022-08-12T07:18:21.873Z,7.68
2022-08-12T07:21:12.169Z,8.35
2022-08-12T07:24:02.973Z,7.38
2022-08-12T07:26:54.905Z,7.57
2022-08-12T07:30:04.032Z,7.45
2022-08-12T07:33:01.634Z,7.50
2022-08-12T07:35:54.002Z,7.63
2022-08-12T07:38:47.047Z,7.60
2022-08-12T07:41:37.916Z,7.60
2022-08-12T07:44:28.713Z,7.70
2022-08-12T07:47:18.236Z,7.90
2022-08-12T07:50:09.505Z,8.20
2022-08-12T07:53:00.030Z,7.90
2022-08-12T07:55:49.459Z,8.20
2022-08-12T07:58:45.247Z,8.20
2022-08-12T08:01:38.958Z,8.33
2022-08-12T08:04:45.944Z,8.40
2022-08-12T08:07:35.432Z,8.40
2022-08-12T08:10:26.260Z,8.30
2022-08-12T08:13:15.324Z,8.60
2022-08-12T08:16:06.556Z,8.53
2022-08-12T08:18:59.660Z,8.30
2022-08-12T08:21:50.525Z,7.97
2022-08-12T08:24:40.724Z,7.80
2022-08-12T08:27:45.517Z,8.10
2022-08-12T08:30:38.492Z,8.00
2022-08-12T08:34:09.612Z,8.10
2022-08-12T08:36:40.707Z,8.00
2022-08-12T08:39:32.175Z,7.90
2022-08-12T08:42:40.540Z,7.97
2022-08-12T08:45:30.341Z,7.90
2022-08-12T08:48:22.445Z,8.00
2022-08-12T08:51:14.882Z,7.83
2022-08-12T08:54:06.855Z,7.80
2022-08-12T08:56:57.904Z,7.90
2022-08-12T08:59:51.798Z,7.77
2022-08-12T09:02:41.829Z,7.60
2022-08-12T09:09:03.374Z,8.10
2022-08-12T09:12:25.049Z,7.77
2022-08-12T09:15:19.271Z,7.70
2022-08-12T09:18:12.439Z,8.07
2022-08-12T09:21:06.310Z,7.47
2022-08-12T09:24:05.960Z,7.70
2022-08-12T09:26:59.075Z,7.80
2022-08-12T09:30:11.804Z,7.40
2022-08-12T09:33:14.291Z,7.10
2022-08-12T09:36:09.672Z,7.60
2022-08-12T09:39:02.851Z,7.70
2022-08-12T09:42:38.804Z,7.75
2022-08-12T09:46:06.219Z,8.00
2022-08-12T09:48:56.589Z,7.95
2022-08-12T09:51:47.598Z,7.30
2022-08-12T09:54:42.991Z,7.68
2022-08-12T09:58:45.474Z,7.07
2022-08-12T10:00:51.967Z,7.55
2022-08-12T10:04:03.280Z,7.55
2022-08-12T10:06:57.832Z,7.55
2022-08-12T10:09:58.155Z,7.45
2022-08-12T10:13:12.063Z,7.80
2022-08-12T10:16:22.181Z,7.78
2022-08-12T10:19:17.254Z,7.18
2022-08-12T10:22:16.962Z,7.93
2022-08-12T10:26:35.409Z,7.60
2022-08-12T10:29:03.444Z,8.00
2022-08-12T10:32:20.748Z,8.00
2022-08-12T10:35:11.294Z,8.10
2022-08-12T10:38:34.806Z,7.67
2022-08-12T10:41:57.187Z,7.73
2022-08-12T10:44:41.373Z,8.10
2022-08-12T10:48:07.100Z,8.03
2022-08-12T10:51:02.079Z,8.00
2022-08-12T10:53:52.910Z,8.10
2022-08-12T10:56:50.309Z,8.17
2022-08-12T11:00:35.980Z,7.83
2022-08-12T11:04:22.338Z,7.80
2022-08-12T11:07:09.932Z,7.80
2022-08-12T11:09:18.692Z,7.77
2022-08-12T11:12:56.718Z,7.67
2022-08-12T11:16:19.558Z,8.20
2022-08-12T11:18:55.046Z,7.90
2022-08-12T11:21:58.341Z,7.80
2022-08-12T11:24:51.719Z,7.90
2022-08-12T11:27:41.677Z,8.03
2022-08-12T11:30:32.156Z,7.90
2022-08-12T11:33:24.099Z,7.90
2022-08-12T11:36:39.179Z,8.30
2022-08-12T11:40:03.583Z,8.40
2022-08-12T11:42:46.417Z,8.20
2022-08-12T11:45:38.987Z,8.53
2022-08-12T11:48:31.353Z,8.60
2022-08-12T11:51:41.312Z,8.37
2022-08-12T11:54:31.388Z,8.40
2022-08-12T11:58:13.080Z,8.20
2022-08-12T12:03:46.258Z,8.40
2022-08-12T12:06:36.433Z,8.73
2022-08-12T12:09:28.447Z,8.70
2022-08-12T12:12:38.625Z,8.63
2022-08-12T12:15:40.612Z,8.33
2022-08-12T12:18:33.132Z,10.20
2022-08-12T12:21:47.085Z,8.90
2022-08-12T12:24:33.606Z,8.80
2022-08-12T12:27:40.177Z,8.40
2022-08-12T12:30:32.798Z,8.50
2022-08-12T12:33:22.350Z,8.60
2022-08-12T12:36:20.012Z,8.70
2022-08-12T12:39:11.820Z,8.67
2022-08-12T12:42:44.332Z,8.50
2022-08-12T12:45:27.263Z,8.60
2022-08-12T12:48:18.644Z,8.27
2022-08-12T12:51:48.299Z,8.60
2022-08-12T12:54:30.798Z,8.50
2022-08-12T12:57:36.406Z,8.70
2022-08-12T13:00:34.211Z,8.40
2022-08-12T13:03:23.823Z,8.50
2022-08-12T13:06:13.860Z,8.60
2022-08-12T13:09:04.495Z,8.30
2022-08-12T13:11:55.260Z,8.53
2022-08-12T13:14:47.883Z,8.40
2022-08-12T13:18:02.126Z,8.50
2022-08-12T13:20:50.054Z,8.50
2022-08-12T13:23:51.269Z,8.80
2022-08-12T13:26:40.940Z,8.43
2022-08-12T13:29:32.979Z,8.50
2022-08-12T13:32:31.482Z,8.50
2022-08-12T13:36:02.693Z,8.83
2022-08-12T13:38:38.983Z,8.60
2022-08-12T13:41:34.275Z,8.60
2022-08-12T13:44:23.868Z,8.50
2022-08-12T13:47:19.538Z,8.70
2022-08-12T13:50:11.454Z,8.73
2022-08-12T13:53:06.280Z,8.70
2022-08-12T13:56:11.895Z,8.80
2022-08-12T13:59:01.958Z,8.60
2022-08-12T14:01:51.474Z,8.37
2022-08-12T14:04:45.499Z,8.57
2022-08-12T14:07:59.030Z,9.03
2022-08-12T14:10:53.514Z,8.50
2022-08-12T14:14:03.662Z,8.30
2022-08-12T14:16:54.181Z,8.53
2022-08-12T14:20:05.935Z,8.67
2022-08-12T14:23:00.003Z,8.90
2022-08-12T14:26:13.628Z,8.50
2022-08-12T14:29:06.515Z,8.60
2022-08-12T14:31:56.011Z,8.80
2022-08-12T14:34:51.264Z,8.83
2022-08-12T14:37:56.603Z,8.53
2022-08-12T14:40:48.906Z,8.30
2022-08-12T14:43:44.150Z,8.60
2022-08-12T14:46:59.251Z,8.63
2022-08-12T14:50:41.647Z,8.40
2022-08-12T14:55:36.209Z,8.30
2022-08-12T14:59:56.972Z,8.60
2022-08-12T15:02:46.607Z,8.40
2022-08-12T15:06:05.085Z,8.77
2022-08-12T15:08:48.353Z,8.60
2022-08-12T15:11:54.418Z,8.57
2022-08-12T15:14:47.418Z,8.67
2022-08-12T15:17:38.578Z,8.50
2022-08-12T15:20:37.360Z,8.50
2022-08-12T15:23:32.765Z,8.40
2022-08-12T15:26:28.619Z,8.57
2022-08-12T15:29:21.329Z,8.60
2022-08-12T15:32:15.957Z,8.60
2022-08-12T15:35:12.031Z,8.57
2022-08-12T15:38:08.396Z,8.60
2022-08-12T15:41:01.862Z,8.60
2022-08-12T15:44:37.228Z,8.47
2022-08-12T15:47:00.885Z,8.47
2022-08-12T15:49:59.599Z,9.00
2022-08-12T15:52:50.189Z,8.50
2022-08-12T15:55:46.319Z,8.40
2022-08-12T15:58:38.513Z,8.67
2022-08-12T16:01:35.464Z,8.67
2022-08-12T16:04:25.316Z,8.50
2022-08-12T16:07:16.275Z,8.73
2022-08-12T16:10:09.192Z,8.60
2022-08-12T16:13:04.532Z,8.83
2022-08-12T16:16:02.479Z,8.67
2022-08-12T16:18:56.303Z,8.60
2022-08-12T16:21:51.590Z,8.80
2022-08-12T16:24:47.800Z,8.80
2022-08-12T16:27:42.857Z,9.00
2022-08-12T16:30:35.132Z,8.77
2022-08-12T16:33:59.636Z,8.60
2022-08-12T16:36:47.549Z,8.50
2022-08-12T16:40:00.335Z,8.40
2022-08-12T16:42:53.417Z,8.43
2022-08-12T16:46:05.319Z,8.50
2022-08-12T16:48:57.077Z,8.60
2022-08-12T16:51:51.317Z,8.50
2022-08-12T16:54:40.761Z,8.70
2022-08-12T16:57:34.997Z,8.70
2022-08-12T17:00:25.311Z,8.70
2022-08-12T17:03:28.640Z,8.73
2022-08-12T17:06:22.312Z,8.60
2022-08-12T17:09:17.758Z,8.60
2022-08-12T17:12:09.510Z,8.70
2022-08-12T17:14:59.065Z,8.80
2022-08-12T17:17:51.102Z,8.70
2022-08-12T17:21:04.373Z,8.73
2022-08-12T17:23:55.856Z,8.60
2022-08-12T17:26:49.506Z,8.80
2022-08-12T17:30:00.577Z,9.00
2022-08-12T17:32:53.130Z,8.67
2022-08-12T17:35:43.461Z,8.70
2022-08-12T17:38:40.628Z,8.80
2022-08-12T17:41:56.542Z,8.77
2022-08-12T17:44:43.572Z,8.80
2022-08-12T17:47:36.548Z,8.53
2022-08-12T17:50:28.512Z,8.80
2022-08-12T17:53:20.141Z,8.83
2022-08-12T17:56:10.482Z,8.80
2022-08-12T17:59:02.758Z,8.80
2022-08-12T18:01:52.521Z,8.90
2022-08-12T18:05:05.401Z,8.53
2022-08-12T18:07:55.152Z,8.53
2022-08-12T18:11:11.832Z,8.40
2022-08-12T18:14:02.922Z,8.67
2022-08-12T18:16:55.221Z,8.60
2022-08-12T18:20:05.170Z,8.53
2022-08-12T18:22:56.125Z,8.50
2022-08-12T18:26:15.203Z,8.67
2022-08-12T18:29:10.005Z,8.67
2022-08-12T18:32:06.134Z,8.53
2022-08-12T18:35:11.331Z,8.50
2022-08-12T18:38:03.459Z,8.50
2022-08-12T18:41:11.349Z,8.70
2022-08-12T18:44:13.859Z,8.80
2022-08-12T18:47:09.655Z,8.77
2022-08-12T18:50:03.086Z,8.73
2022-08-12T18:52:53.403Z,8.60
2022-08-12T18:55:57.374Z,8.87
2022-08-12T18:58:59.593Z,8.87
2022-08-12T19:02:21.240Z,8.90
2022-08-12T19:05:09.328Z,8.80
2022-08-12T19:08:02.120Z,8.60
2022-08-12T19:10:56.013Z,8.80
2022-08-12T19:14:04.629Z,8.90
2022-08-12T19:17:01.477Z,8.87
2022-08-12T19:19:51.650Z,8.50
2022-08-12T19:22:41.338Z,8.80
2022-08-12T19:26:01.478Z,8.80
2022-08-12T19:28:41.699Z,8.70
2022-08-12T19:31:57.599Z,8.70
2022-08-12T19:38:07.295Z,8.90
2022-08-12T19:40:58.753Z,9.10
2022-08-12T19:44:00.503Z,9.07
2022-08-12T19:47:00.780Z,9.13
2022-08-12T19:49:55.266Z,8.80
2022-08-12T19:52:44.702Z,8.90
2022-08-12T19:55:38.998Z,8.67
2022-08-12T19:58:28.605Z,8.93
2022-08-12T20:01:18.787Z,8.87
2022-08-12T20:04:08.522Z,8.80
2022-08-12T20:07:00.131Z,9.37
2022-08-12T20:09:52.596Z,9.83
2022-08-12T20:13:05.702Z,9.90
2022-08-12T20:15:59.960Z,10.67
2022-08-12T20:18:57.080Z,10.33
2022-08-12T20:21:47.362Z,10.10
2022-08-12T20:24:39.010Z,10.20
2022-08-12T20:28:02.370Z,9.67
2022-08-12T20:30:59.195Z,9.67
2022-08-12T20:33:56.105Z,9.70
2022-08-12T20:36:47.575Z,9.90
2022-08-12T20:39:56.001Z,10.20
2022-08-12T20:42:47.752Z,10.27
2022-08-12T20:45:50.587Z,9.70
2022-08-12T20:48:43.585Z,10.00
2022-08-12T20:51:50.962Z,10.03
2022-08-12T20:54:50.271Z,10.07
2022-08-12T20:58:02.518Z,10.50
2022-08-12T21:00:51.023Z,10.70
2022-08-12T21:03:58.198Z,11.43
2022-08-12T21:07:08.507Z,11.30
2022-08-12T21:09:59.355Z,11.40
2022-08-12T21:12:52.125Z,11.97
2022-08-12T21:15:54.453Z,11.73
2022-08-12T21:18:50.825Z,12.50
2022-08-12T21:21:49.890Z,11.60
2022-08-12T21:24:46.641Z,12.10
2022-08-12T21:27:59.337Z,11.73
2022-08-12T21:32:35.065Z,11.87
2022-08-12T21:34:07.117Z,11.20
2022-08-12T21:37:12.982Z,10.80
2022-08-12T21:40:15.035Z,10.60
2022-08-12T21:43:08.276Z,10.50
2022-08-12T21:46:01.826Z,10.10
2022-08-12T21:48:56.718Z,10.20
2022-08-12T21:51:50.642Z,9.80
2022-08-12T21:54:42.637Z,9.83
2022-08-12T21:57:36.489Z,10.13
2022-08-12T22:00:41.177Z,9.27
2022-08-12T22:04:10.838Z,9.70
2022-08-12T22:06:59.478Z,9.67
2022-08-12T22:09:56.919Z,9.70
2022-08-12T22:12:47.382Z,9.30
2022-08-12T22:15:36.823Z,9.47
2022-08-12T22:18:27.401Z,9.97
2022-08-12T22:21:22.287Z,9.50
2022-08-12T22:24:25.688Z,9.70
2022-08-12T22:27:32.058Z,9.80
2022-08-12T22:30:39.920Z,10.23
2022-08-12T22:33:30.369Z,9.33
2022-08-12T22:36:41.106Z,9.87
2022-08-12T22:39:33.529Z,9.70
2022-08-12T22:42:42.796Z,10.10
2022-08-12T22:45:58.747Z,10.40
2022-08-12T22:48:50.222Z,10.20
2022-08-12T22:51:59.869Z,10.60
2022-08-12T22:55:02.809Z,10.80
2022-08-12T22:57:55.260Z,10.50
2022-08-12T23:00:48.431Z,10.10
2022-08-12T23:03:48.116Z,10.30
2022-08-12T23:06:40.611Z,10.60
2022-08-12T23:09:48.630Z,10.63
2022-08-12T23:12:55.701Z,10.97
2022-08-12T23:15:54.699Z,10.63
2022-08-12T23:18:45.158Z,10.17
2022-08-12T23:22:03.631Z,10.97
2022-08-12T23:24:53.925Z,10.50
2022-08-12T23:28:03.705Z,10.33
2022-08-12T23:30:53.971Z,10.23
2022-08-12T23:34:01.575Z,10.23
2022-08-12T23:36:54.655Z,10.73
2022-08-12T23:40:14.484Z,10.53
2022-08-12T23:42:55.295Z,10.70
2022-08-12T23:46:00.520Z,10.20
2022-08-12T23:48:51.738Z,9.80
2022-08-12T23:51:41.324Z,9.50
2022-08-12T23:54:38.583Z,10.07
2022-08-12T23:58:17.427Z,9.80
